Time;durP1;ratioP1;P1;durP2;ratioP2;P2;SDS_P1;SDS_P2;PMS_P1;PMS_P2;Temp;Humidity;BMP_temperature;BMP_pressure;BME280_temperature;BME280_humidity;BME280_pressure;Samples;Min_cycle;Max_cycle;Signal;HPM_P1;HPM_P2
2022/06/15 00:00:24;;;;;;;3.40;3.03;;;13.90;99.90;;;;;;5059703;28;20459;-75
2022/06/15 00:03:15;;;;;;;3.00;2.80;;;13.90;99.90;;;;;;5052250;28;20514;-75
2022/06/15 00:06:12;;;;;;;4.23;3.73;;;13.90;99.90;;;;;;5051324;28;20599;-76
2022/06/15 00:09:09;;;;;;;3.60;3.10;;;13.90;99.90;;;;;;5052688;28;20492;-75
2022/06/15 00:12:11;;;;;;;3.23;2.90;;;13.90;99.90;;;;;;5047060;28;20926;-75
2022/06/15 00:15:08;;;;;;;3.60;3.30;;;14.00;99.90;;;;;;5050460;28;20471;-75
2022/06/15 00:18:00;;;;;;;3.33;3.00;;;14.00;99.90;;;;;;5054065;28;20457;-75
2022/06/15 00:21:01;;;;;;;3.63;3.37;;;13.90;99.90;;;;;;5046439;28;20888;-75
2022/06/15 00:23:57;;;;;;;3.23;2.93;;;13.90;99.90;;;;;;5052120;28;20483;-75
2022/06/15 00:26:51;;;;;;;3.53;3.23;;;13.90;99.90;;;;;;5049123;28;20458;-75
2022/06/15 00:29:44;;;;;;;4.77;3.20;;;13.90;99.90;;;;;;5050920;28;20511;-75
2022/06/15 00:32:34;;;;;;;3.57;2.93;;;13.90;99.90;;;;;;5050994;28;21027;-75
2022/06/15 00:35:22;;;;;;;3.20;3.00;;;13.80;99.90;;;;;;5051264;28;20478;-75
2022/06/15 00:38:17;;;;;;;3.53;3.20;;;13.80;99.90;;;;;;5050182;28;20493;-75
2022/06/15 00:41:30;;;;;;;3.47;3.20;;;13.80;99.90;;;;;;5050588;28;20462;-75
2022/06/15 00:44:38;;;;;;;3.20;2.90;;;13.80;99.90;;;;;;5052822;28;20592;-75
2022/06/15 00:47:31;;;;;;;3.83;3.53;;;13.80;99.90;;;;;;5052836;28;20530;-75
2022/06/15 00:50:22;;;;;;;5.33;3.40;;;13.80;99.90;;;;;;5049618;28;21033;-75
2022/06/15 00:53:14;;;;;;;4.67;3.67;;;13.70;99.90;;;;;;5057935;28;20557;-75
2022/06/15 00:56:07;;;;;;;3.33;3.03;;;13.80;99.90;;;;;;5059573;28;20992;-75
2022/06/15 00:59:04;;;;;;;2.83;2.63;;;13.80;99.90;;;;;;5055572;28;20549;-74
2022/06/15 01:02:00;;;;;;;3.07;2.87;;;13.80;99.90;;;;;;5048765;28;20458;-74
2022/06/15 01:04:57;;;;;;;4.60;3.27;;;13.80;99.90;;;;;;5047699;28;20576;-75
2022/06/15 01:08:34;;;;;;;3.03;2.83;;;13.70;99.90;;;;;;5055284;28;20949;-75
2022/06/15 01:11:52;;;;;;;3.23;2.97;;;13.70;99.90;;;;;;5047638;28;20533;-75
2022/06/15 01:15:20;;;;;;;3.50;3.20;;;13.70;99.90;;;;;;5050772;28;20475;-74
2022/06/15 01:18:29;;;;;;;3.13;2.93;;;13.70;99.90;;;;;;5049602;28;20462;-75
2022/06/15 01:21:29;;;;;;;4.17;2.97;;;13.70;99.90;;;;;;5051971;28;20529;-75
2022/06/15 01:24:52;;;;;;;3.77;3.47;;;13.70;99.90;;;;;;5048548;28;20523;-75
2022/06/15 01:28:05;;;;;;;3.33;3.07;;;13.60;99.90;;;;;;5054073;28;20516;-74
2022/06/15 01:34:28;;;;;;;4.87;2.97;;;13.60;99.90;;;;;;5046577;28;20566;-74
2022/06/15 01:37:27;;;;;;;3.50;3.20;;;13.60;99.90;;;;;;5053554;28;20556;-77
2022/06/15 01:40:25;;;;;;;3.43;3.03;;;13.60;99.90;;;;;;5047876;28;20945;-77
2022/06/15 01:43:51;;;;;;;3.10;2.90;;;13.60;99.90;;;;;;5046564;28;21064;-74
2022/06/15 01:46:49;;;;;;;3.70;3.10;;;13.60;99.90;;;;;;5050949;28;20493;-77
2022/06/15 01:49:44;;;;;;;4.67;3.73;;;13.60;99.90;;;;;;5051835;28;20465;-77
2022/06/15 01:52:40;;;;;;;4.30;3.47;;;13.60;99.90;;;;;;5049515;28;20515;-77
2022/06/15 01:55:52;;;;;;;5.10;2.97;;;13.60;99.90;;;;;;5049990;28;20500;-77
2022/06/15 01:59:00;;;;;;;3.30;3.00;;;13.60;99.90;;;;;;5045855;28;20531;-74
2022/06/15 02:02:09;;;;;;;3.57;3.27;;;13.60;99.90;;;;;;5046503;28;20617;-77
2022/06/15 02:05:18;;;;;;;5.60;3.40;;;13.60;99.90;;;;;;5045908;28;21100;-76
2022/06/15 02:08:26;;;;;;;3.40;2.87;;;13.60;99.90;;;;;;5051410;28;20457;-76
2022/06/15 02:11:24;;;;;;;3.30;3.00;;;13.60;99.90;;;;;;5051695;28;20478;-77
2022/06/15 02:14:25;;;;;;;3.30;2.97;;;13.60;99.90;;;;;;5049797;28;20569;-76
2022/06/15 02:17:39;;;;;;;3.07;2.87;;;13.60;99.90;;;;;;5048608;28;21024;-77
2022/06/15 02:20:48;;;;;;;3.10;2.80;;;13.60;99.90;;;;;;5046359;28;20914;-77
2022/06/15 02:23:41;;;;;;;3.30;3.10;;;13.60;99.90;;;;;;5044264;28;20564;-76
2022/06/15 02:26:33;;;;;;;3.53;3.23;;;13.60;99.90;;;;;;5051393;28;20554;-76
2022/06/15 02:29:48;;;;;;;3.87;3.47;;;13.60;99.90;;;;;;5053872;28;21033;-74
2022/06/15 02:33:03;;;;;;;3.93;3.17;;;13.60;99.90;;;;;;5051706;28;20469;-74
2022/06/15 02:35:52;;;;;;;3.70;3.30;;;13.70;99.90;;;;;;5048236;28;20515;-74
2022/06/15 02:38:47;;;;;;;4.73;3.23;;;13.70;99.90;;;;;;5061376;28;20454;-76
2022/06/15 02:41:36;;;;;;;3.33;3.03;;;13.70;99.90;;;;;;5055492;28;20481;-77
2022/06/15 02:44:27;;;;;;;3.10;2.87;;;13.60;99.90;;;;;;5053243;28;21214;-77
2022/06/15 02:47:35;;;;;;;3.17;2.90;;;13.60;99.90;;;;;;5052687;28;20466;-76
2022/06/15 02:50:29;;;;;;;3.50;3.20;;;13.60;99.90;;;;;;5052591;28;20454;-77
2022/06/15 02:53:34;;;;;;;3.00;2.77;;;13.60;99.90;;;;;;5054000;28;20478;-76
2022/06/15 02:56:39;;;;;;;3.60;3.30;;;13.60;99.90;;;;;;5054390;28;20955;-76
2022/06/15 02:59:38;;;;;;;3.40;3.10;;;13.60;99.90;;;;;;5055870;28;20540;-77
2022/06/15 03:02:50;;;;;;;;;;;;;;;;;;;;;
2022/06/15 03:05:47;;;;;;;3.50;3.20;;;13.60;99.90;;;;;;5055367;28;20565;-76
2022/06/15 03:08:39;;;;;;;3.13;2.93;;;13.60;99.90;;;;;;5057050;28;20900;-76
2022/06/15 03:11:32;;;;;;;3.33;3.03;;;13.60;99.90;;;;;;5050330;28;20556;-76
2022/06/15 03:14:31;;;;;;;3.43;3.13;;;13.60;99.90;;;;;;5054740;28;20509;-76
2022/06/15 03:17:30;;;;;;;4.87;3.40;;;13.60;99.90;;;;;;5053617;28;20500;-77
2022/06/15 03:23:50;;;;;;;3.17;2.97;;;13.50;99.90;;;;;;5054516;28;20974;-76
2022/06/15 03:26:49;;;;;;;3.30;3.00;;;13.50;99.90;;;;;;5054759;28;20449;-76
2022/06/15 03:29:42;;;;;;;3.93;3.37;;;13.50;99.90;;;;;;5057208;28;20468;-76
2022/06/15 03:32:42;;;;;;;3.53;3.23;;;13.60;99.90;;;;;;5051535;28;20478;-76
2022/06/15 03:35:47;;;;;;;3.37;3.03;;;13.60;99.90;;;;;;5052633;28;20475;-75
2022/06/15 03:38:55;;;;;;;3.50;3.30;;;13.60;99.90;;;;;;5050678;28;20458;-76
2022/06/15 03:45:32;;;;;;;2.90;2.70;;;13.60;99.90;;;;;;5054246;28;20491;-75
2022/06/15 03:48:27;;;;;;;3.60;3.30;;;13.60;99.90;;;;;;5049906;28;20446;-75
2022/06/15 03:51:34;;;;;;;3.57;3.27;;;13.60;99.90;;;;;;5048150;28;20533;-75
2022/06/15 03:54:34;;;;;;;3.63;3.33;;;13.60;99.90;;;;;;5052374;28;20473;-77
2022/06/15 03:57:23;;;;;;;3.40;3.20;;;13.60;99.90;;;;;;5050479;28;20450;-75
2022/06/15 04:00:21;;;;;;;3.77;3.47;;;13.70;99.90;;;;;;5052306;28;20755;-77
2022/06/15 04:03:30;;;;;;;3.90;3.60;;;13.70;99.90;;;;;;5050168;28;20482;-75
2022/06/15 04:06:36;;;;;;;4.40;4.00;;;13.70;99.90;;;;;;5050043;28;20461;-75
2022/06/15 04:09:36;;;;;;;5.83;3.53;;;13.70;99.90;;;;;;5049211;28;20462;-77
2022/06/15 04:12:32;;;;;;;4.50;3.40;;;13.70;99.90;;;;;;5048048;28;21084;-75
2022/06/15 04:15:39;;;;;;;4.27;3.80;;;13.70;99.90;;;;;;5046163;28;21001;-75
2022/06/15 04:18:42;;;;;;;4.40;3.60;;;13.70;99.90;;;;;;5044591;28;20467;-75
2022/06/15 04:22:16;;;;;;;3.63;3.33;;;13.80;99.90;;;;;;5043920;28;20817;-75
2022/06/15 04:25:52;;;;;;;4.33;3.60;;;13.80;99.90;;;;;;5037165;28;20854;-75
2022/06/15 04:29:06;;;;;;;7.17;4.03;;;13.80;99.90;;;;;;5047453;28;20462;-75
2022/06/15 04:32:09;;;;;;;4.07;3.73;;;13.90;99.90;;;;;;5048496;28;20450;-75
2022/06/15 04:38:27;;;;;;;4.23;3.90;;;14.00;99.90;;;;;;5032630;28;20481;-77
2022/06/15 04:41:22;;;;;;;5.40;4.27;;;14.00;99.90;;;;;;5038444;28;20493;-78
2022/06/15 04:44:22;;;;;;;4.37;3.87;;;14.00;99.90;;;;;;5037442;28;20483;-78
2022/06/15 04:47:23;;;;;;;6.40;4.30;;;14.10;99.90;;;;;;5039586;28;20459;-77
2022/06/15 04:50:25;;;;;;;4.83;3.90;;;14.20;99.90;;;;;;5045143;28;20537;-77
2022/06/15 04:53:20;;;;;;;6.03;4.07;;;14.30;99.90;;;;;;5047104;28;20462;-77
2022/06/15 04:56:21;;;;;;;4.17;3.80;;;14.30;99.90;;;;;;5041941;28;20592;-76
2022/06/15 04:59:25;;;;;;;4.10;3.80;;;14.40;99.90;;;;;;5048516;28;20617;-77
2022/06/15 05:02:28;;;;;;;4.37;3.80;;;14.40;99.90;;;;;;5039859;28;20458;-77
2022/06/15 05:05:22;;;;;;;4.87;3.90;;;14.40;99.90;;;;;;5042674;28;20477;-77
2022/06/15 05:11:39;;;;;;;4.57;4.13;;;14.60;99.90;;;;;;5050129;28;20449;-79
2022/06/15 05:14:39;;;;;;;6.93;4.17;;;14.60;99.90;;;;;;5048652;28;20632;-78
2022/06/15 05:18:03;;;;;;;7.37;4.97;;;14.60;99.90;;;;;;5044284;28;20465;-78
2022/06/15 05:20:56;;;;;;;7.60;4.73;;;14.70;99.90;;;;;;5060680;28;20520;-75
2022/06/15 05:24:05;;;;;;;5.77;4.50;;;14.70;99.90;;;;;;5050903;28;21145;-75
2022/06/15 05:26:57;;;;;;;5.30;4.57;;;14.80;99.90;;;;;;5045393;28;20720;-75
2022/06/15 05:29:47;;;;;;;5.57;4.27;;;14.80;99.90;;;;;;5046902;28;20482;-75
2022/06/15 05:32:37;;;;;;;5.40;4.90;;;14.80;99.90;;;;;;5041216;28;20473;-75
2022/06/15 05:35:34;;;;;;;5.20;4.73;;;14.80;99.90;;;;;;5045209;28;20579;-77
2022/06/15 05:38:52;;;;;;;5.93;4.40;;;14.80;99.90;;;;;;5045792;28;20472;-76
2022/06/15 05:42:30;;;;;;;4.70;4.30;;;14.90;99.90;;;;;;5041817;28;20450;-76
2022/06/15 05:45:28;;;;;;;6.10;4.40;;;15.00;99.90;;;;;;5039625;28;20572;-76
2022/06/15 05:48:25;;;;;;;7.13;3.97;;;15.00;99.90;;;;;;5045176;28;20532;-75
2022/06/15 05:51:15;;;;;;;4.67;4.00;;;15.00;99.90;;;;;;5042552;28;20454;-76
2022/06/15 05:54:09;;;;;;;6.27;4.20;;;15.00;99.90;;;;;;5044733;28;22757;-76
2022/06/15 05:57:15;;;;;;;4.77;4.20;;;15.00;99.90;;;;;;5048708;28;20450;-75
2022/06/15 06:00:14;;;;;;;3.63;3.33;;;15.00;99.90;;;;;;5045391;28;20485;-76
2022/06/15 06:03:04;;;;;;;3.80;3.40;;;15.00;99.90;;;;;;5048496;28;20575;-76
2022/06/15 06:05:58;;;;;;;3.53;3.23;;;15.00;99.90;;;;;;5042004;28;20498;-75
2022/06/15 06:08:49;;;;;;;7.77;3.57;;;15.10;99.90;;;;;;5050416;28;20457;-75
2022/06/15 06:11:43;;;;;;;3.87;2.87;;;15.00;99.90;;;;;;5053407;28;21125;-77
2022/06/15 06:14:33;;;;;;;3.80;3.43;;;15.00;99.90;;;;;;5056263;28;20489;-77
2022/06/15 06:17:23;;;;;;;4.07;3.37;;;15.10;99.90;;;;;;5052532;28;20480;-75
2022/06/15 06:20:19;;;;;;;4.53;3.10;;;15.10;99.90;;;;;;5051755;28;20927;-75
2022/06/15 06:23:07;;;;;;;3.90;3.47;;;15.00;99.90;;;;;;5056168;28;20497;-75
2022/06/15 06:25:56;;;;;;;3.90;3.20;;;15.10;99.90;;;;;;5054090;28;20522;-77
2022/06/15 06:28:47;;;;;;;3.53;3.23;;;15.10;99.90;;;;;;5053191;28;20603;-77
2022/06/15 06:31:35;;;;;;;3.80;2.93;;;15.20;99.90;;;;;;5053424;28;20536;-77
2022/06/15 06:34:23;;;;;;;4.00;2.83;;;15.30;99.90;;;;;;5055478;28;21149;-77
2022/06/15 06:37:19;;;;;;;2.93;2.73;;;15.30;99.90;;;;;;5054693;28;20612;-77
2022/06/15 06:40:14;;;;;;;3.10;2.80;;;15.40;99.90;;;;;;5052487;28;22928;-77
2022/06/15 06:43:02;;;;;;;4.57;3.17;;;15.40;99.90;;;;;;5055529;28;20552;-78
2022/06/15 06:45:51;;;;;;;4.73;2.80;;;15.40;99.90;;;;;;5050345;28;20925;-74
2022/06/15 06:48:39;;;;;;;3.97;3.00;;;15.50;99.90;;;;;;5057011;28;21015;-75
2022/06/15 06:51:28;;;;;;;3.23;2.90;;;15.50;99.90;;;;;;5048272;28;21066;-75
2022/06/15 06:54:20;;;;;;;3.10;2.80;;;15.60;99.90;;;;;;5055945;28;20481;-75
2022/06/15 06:57:08;;;;;;;4.23;3.33;;;15.60;99.90;;;;;;5053924;28;21024;-75
2022/06/15 06:59:57;;;;;;;3.77;3.37;;;15.70;99.90;;;;;;5053782;28;20454;-75
2022/06/15 07:02:45;;;;;;;3.90;3.47;;;15.80;99.90;;;;;;5055198;28;20530;-75
2022/06/15 07:05:34;;;;;;;3.90;3.40;;;15.80;99.90;;;;;;5055999;28;20599;-75
2022/06/15 07:08:22;;;;;;;4.43;3.37;;;15.90;99.90;;;;;;5055824;28;20501;-75
2022/06/15 07:11:13;;;;;;;3.50;3.20;;;16.00;99.90;;;;;;5055358;28;20977;-75
2022/06/15 07:14:06;;;;;;;4.50;3.40;;;16.00;99.90;;;;;;5055090;28;20673;-75
2022/06/15 07:17:01;;;;;;;6.20;3.13;;;16.00;99.90;;;;;;5051789;28;20485;-75
2022/06/15 07:19:49;;;;;;;3.00;2.70;;;16.10;99.90;;;;;;5054397;28;20477;-77
2022/06/15 07:22:38;;;;;;;3.53;2.90;;;16.10;99.90;;;;;;5051450;28;20503;-77
2022/06/15 07:25:26;;;;;;;4.33;3.07;;;16.10;99.90;;;;;;5050033;28;21147;-75
2022/06/15 07:28:16;;;;;;;3.13;2.43;;;16.20;99.90;;;;;;5053352;28;20601;-75
2022/06/15 07:31:04;;;;;;;3.60;2.30;;;16.30;99.90;;;;;;5052864;28;20530;-75
2022/06/15 07:33:53;;;;;;;2.80;2.50;;;16.30;99.90;;;;;;5053633;28;20518;-75
2022/06/15 07:36:46;;;;;;;4.17;2.80;;;16.40;99.90;;;;;;5051446;28;20461;-75
2022/06/15 07:39:37;;;;;;;5.10;2.50;;;16.40;99.90;;;;;;5047716;28;20451;-75
2022/06/15 07:42:28;;;;;;;2.97;2.43;;;16.50;99.90;;;;;;5051923;28;20454;-75
2022/06/15 07:45:20;;;;;;;2.93;2.27;;;16.50;99.90;;;;;;5050192;28;20612;-74
2022/06/15 07:51:28;;;;;;;3.13;2.23;;;16.70;99.90;;;;;;5054885;28;20531;-75
2022/06/15 07:54:18;;;;;;;5.80;2.67;;;16.70;99.90;;;;;;5055521;28;20471;-74
2022/06/15 07:57:07;;;;;;;3.90;2.10;;;16.80;99.90;;;;;;5048159;28;20859;-75
2022/06/15 07:59:58;;;;;;;2.57;2.27;;;16.90;99.90;;;;;;5051307;28;20483;-75
2022/06/15 08:02:48;;;;;;;3.97;2.53;;;17.00;99.90;;;;;;5059289;28;20500;-75
2022/06/15 08:05:45;;;;;;;2.53;2.33;;;17.00;99.90;;;;;;5056215;28;20557;-76
2022/06/15 08:08:35;;;;;;;2.57;2.37;;;17.10;99.90;;;;;;5053697;28;20611;-77
2022/06/15 08:11:24;;;;;;;4.10;2.03;;;17.20;99.90;;;;;;5053426;28;20593;-77
2022/06/15 08:14:12;;;;;;;2.57;2.00;;;17.20;99.90;;;;;;5052363;28;20593;-77
2022/06/15 08:17:02;;;;;;;1.80;1.70;;;17.30;99.90;;;;;;5054911;28;20479;-77
2022/06/15 08:19:54;;;;;;;3.50;2.50;;;17.30;99.90;;;;;;5050236;28;20966;-77
2022/06/15 08:22:46;;;;;;;2.20;1.90;;;17.40;99.90;;;;;;5050865;28;20564;-77
2022/06/15 08:25:37;;;;;;;2.70;2.23;;;17.50;99.90;;;;;;5052106;28;20477;-78
2022/06/15 08:28:29;;;;;;;3.20;1.83;;;17.60;99.90;;;;;;5054153;28;20524;-77
2022/06/15 08:31:18;;;;;;;2.27;2.10;;;17.70;99.90;;;;;;5052649;28;20548;-76
2022/06/15 08:34:07;;;;;;;2.70;2.13;;;17.80;99.90;;;;;;5049709;28;20542;-77
2022/06/15 08:36:57;;;;;;;2.27;2.10;;;17.90;99.90;;;;;;5047430;28;21117;-77
2022/06/15 08:39:47;;;;;;;2.10;1.90;;;17.90;99.90;;;;;;5053183;28;20454;-77
2022/06/15 08:42:45;;;;;;;2.63;2.10;;;17.90;99.90;;;;;;5052482;28;20477;-77
2022/06/15 08:45:38;;;;;;;2.00;1.90;;;17.90;99.90;;;;;;5049337;28;21722;-76
2022/06/15 08:48:44;;;;;;;2.10;1.90;;;17.90;99.90;;;;;;5052941;28;20483;-76
2022/06/15 08:51:37;;;;;;;2.00;1.87;;;17.90;99.90;;;;;;5049693;28;20494;-76
2022/06/15 08:54:31;;;;;;;3.30;2.30;;;17.90;99.90;;;;;;5050540;28;20506;-77
2022/06/15 08:57:33;;;;;;;2.20;2.00;;;17.90;99.90;;;;;;5052754;28;20541;-74
2022/06/15 09:00:26;;;;;;;2.60;2.00;;;17.90;99.90;;;;;;5047378;28;20545;-74
2022/06/15 09:03:30;;;;;;;2.50;2.30;;;17.90;99.90;;;;;;5049735;28;21088;-74
2022/06/15 09:06:35;;;;;;;2.37;2.17;;;18.00;99.90;;;;;;5047769;28;20484;-75
2022/06/15 09:09:42;;;;;;;2.40;1.93;;;18.00;99.90;;;;;;5053188;28;20536;-75
2022/06/15 09:12:58;;;;;;;2.67;1.90;;;18.00;99.90;;;;;;5051275;28;20521;-75
2022/06/15 09:15:55;;;;;;;3.70;2.60;;;18.10;99.90;;;;;;5044690;28;20482;-75
2022/06/15 09:18:48;;;;;;;2.63;1.90;;;18.10;99.90;;;;;;5054868;28;20544;-75
2022/06/15 09:21:42;;;;;;;2.20;2.00;;;18.20;99.90;;;;;;5051877;28;20481;-75
2022/06/15 09:24:39;;;;;;;2.03;1.83;;;18.30;99.90;;;;;;5053129;28;20556;-75
2022/06/15 09:27:33;;;;;;;2.30;2.10;;;18.50;99.90;;;;;;5054717;28;20538;-75
2022/06/15 09:30:27;;;;;;;2.77;1.93;;;18.50;99.90;;;;;;5047625;28;20545;-75
2022/06/15 09:33:21;;;;;;;3.43;2.17;;;18.60;99.90;;;;;;5052800;28;20470;-75
2022/06/15 09:36:13;;;;;;;2.07;1.97;;;18.50;99.90;;;;;;5052021;28;20553;-74
2022/06/15 09:39:02;;;;;;;3.60;2.70;;;18.60;99.90;;;;;;5051165;28;20450;-75
2022/06/15 09:42:02;;;;;;;3.20;2.10;;;18.60;99.90;;;;;;5053988;28;21057;-75
2022/06/15 09:44:59;;;;;;;3.00;2.37;;;18.70;99.90;;;;;;5054097;28;21097;-75
2022/06/15 09:47:56;;;;;;;2.50;2.27;;;18.80;99.90;;;;;;5052268;28;20510;-75
2022/06/15 09:50:54;;;;;;;2.70;2.50;;;18.80;99.90;;;;;;5051928;28;20455;-75
2022/06/15 09:53:50;;;;;;;2.57;2.37;;;18.70;99.90;;;;;;5054325;28;20461;-75
2022/06/15 09:56:38;;;;;;;3.30;2.20;;;18.80;99.90;;;;;;5055097;28;20889;-75
2022/06/15 09:59:33;;;;;;;3.00;2.80;;;18.80;99.90;;;;;;5051218;28;20515;-75
2022/06/15 10:02:25;;;;;;;4.13;2.90;;;19.00;99.90;;;;;;5051337;28;20546;-75
2022/06/15 10:05:22;;;;;;;3.00;2.50;;;19.00;99.90;;;;;;5050658;28;20473;-75
2022/06/15 10:08:15;;;;;;;3.00;2.70;;;19.10;99.90;;;;;;5051051;28;20470;-75
2022/06/15 10:11:16;;;;;;;3.07;2.60;;;19.20;99.90;;;;;;5053413;28;20453;-75
2022/06/15 10:14:22;;;;;;;2.70;2.40;;;19.30;99.90;;;;;;5049322;28;20514;-75
2022/06/15 10:17:28;;;;;;;4.40;2.80;;;19.40;99.90;;;;;;5054252;28;20450;-75
2022/06/15 10:20:25;;;;;;;4.90;2.70;;;19.60;99.90;;;;;;5053372;28;20879;-75
2022/06/15 10:23:34;;;;;;;3.07;2.53;;;19.70;99.90;;;;;;5053189;28;20573;-75
2022/06/15 10:26:37;;;;;;;2.70;2.50;;;19.80;99.90;;;;;;5048317;28;20900;-75
2022/06/15 10:29:31;;;;;;;2.93;2.50;;;19.70;99.90;;;;;;5051515;28;20458;-75
2022/06/15 10:32:21;;;;;;;2.60;2.33;;;19.70;99.90;;;;;;5052459;28;20451;-75
2022/06/15 10:35:18;;;;;;;2.40;2.20;;;19.80;99.90;;;;;;5052728;28;20517;-75
2022/06/15 10:38:11;;;;;;;5.03;2.50;;;19.90;99.90;;;;;;5054326;28;20599;-75
2022/06/15 10:41:45;;;;;;;3.30;2.60;;;20.00;99.90;;;;;;5052762;28;20643;-75
2022/06/15 10:44:14;;;;;;;3.20;2.33;;;20.00;99.90;;;;;;5053364;28;21009;-75
2022/06/15 10:47:05;;;;;;;2.33;2.13;;;20.00;99.90;;;;;;5060396;28;20942;-75
2022/06/15 10:49:59;;;;;;;2.43;2.20;;;20.00;99.90;;;;;;5055785;28;20464;-75
2022/06/15 10:52:53;;;;;;;3.87;2.50;;;20.10;99.90;;;;;;5059025;28;20513;-75
2022/06/15 11:02:14;;;;;;;3.67;2.70;;;20.50;99.90;;;;;;5054599;28;20950;-75
2022/06/15 11:05:18;;;;;;;3.13;2.80;;;20.60;99.90;;;;;;5055415;28;20470;-75
2022/06/15 11:08:13;;;;;;;3.03;2.83;;;20.60;99.90;;;;;;5057398;28;20532;-75
2022/06/15 11:11:11;;;;;;;3.30;3.00;;;20.70;99.90;;;;;;5056941;28;20466;-75
2022/06/15 11:14:07;;;;;;;2.70;2.50;;;20.80;99.90;;;;;;5054704;28;20704;-75
2022/06/15 11:20:36;;;;;;;3.67;2.80;;;20.80;99.90;;;;;;5052588;28;20458;-77
2022/06/15 11:23:31;;;;;;;2.63;2.13;;;20.90;99.90;;;;;;5055234;28;20473;-77
2022/06/15 11:29:48;;;;;;;6.17;3.20;;;21.10;99.90;;;;;;5049051;28;21161;-77
2022/06/15 11:32:42;;;;;;;3.47;3.10;;;21.10;99.90;;;;;;5050321;28;20484;-76
2022/06/15 11:35:39;;;;;;;8.87;8.10;;;21.10;99.90;;;;;;5044418;28;21437;-77
2022/06/15 11:38:38;;;;;;;7.63;7.03;;;21.30;99.90;;;;;;5048296;28;20454;-76
2022/06/15 11:41:31;;;;;;;3.50;3.07;;;21.30;99.90;;;;;;5044407;28;20446;-76
2022/06/15 11:44:22;;;;;;;3.80;3.00;;;21.30;99.90;;;;;;5044530;28;21039;-76
2022/06/15 11:47:29;;;;;;;4.03;3.23;;;21.30;99.90;;;;;;5051533;28;20458;-76
2022/06/15 11:50:25;;;;;;;2.63;2.43;;;21.30;99.90;;;;;;5054932;28;20481;-76
2022/06/15 11:53:23;;;;;;;3.50;2.60;;;21.40;99.90;;;;;;5056030;28;20520;-76
2022/06/15 11:56:14;;;;;;;3.50;2.37;;;21.40;99.90;;;;;;5049355;28;20576;-75
2022/06/15 11:59:10;;;;;;;4.40;2.80;;;21.50;99.90;;;;;;5049287;28;20443;-76
2022/06/15 12:02:32;;;;;;;3.03;2.73;;;21.60;99.90;;;;;;5051248;28;20453;-77
2022/06/15 12:05:35;;;;;;;3.80;2.77;;;21.80;99.90;;;;;;5053466;28;20474;-77
2022/06/15 12:08:36;;;;;;;4.10;2.83;;;21.90;99.90;;;;;;5056724;28;21240;-77
2022/06/15 12:14:57;;;;;;;3.57;2.87;;;22.10;99.90;;;;;;5054261;28;20478;-77
2022/06/15 12:17:53;;;;;;;3.17;2.80;;;22.30;99.90;;;;;;5042088;28;20551;-75
2022/06/15 12:20:49;;;;;;;4.20;2.97;;;22.40;99.90;;;;;;5050441;28;20450;-75
2022/06/15 12:23:58;;;;;;;3.13;2.83;;;22.40;99.90;;;;;;5052065;28;20481;-76
2022/06/15 12:27:01;;;;;;;4.33;2.77;;;22.40;99.90;;;;;;5052173;28;23706;-76
2022/06/15 12:29:57;;;;;;;2.70;2.50;;;22.40;99.90;;;;;;5048973;28;21107;-75
2022/06/15 12:33:06;;;;;;;3.10;2.90;;;22.40;99.90;;;;;;5052963;28;20469;-76
2022/06/15 12:36:04;;;;;;;2.90;2.60;;;22.40;99.90;;;;;;5050105;28;20578;-76
2022/06/15 12:39:04;;;;;;;2.27;2.00;;;22.50;99.90;;;;;;5041868;28;20453;-75
2022/06/15 12:42:11;;;;;;;3.47;2.57;;;22.70;99.90;;;;;;5048042;28;20454;-75
2022/06/15 12:45:10;;;;;;;3.10;2.83;;;22.50;99.90;;;;;;5045302;28;20500;-76
2022/06/15 12:48:01;;;;;;;2.83;2.47;;;22.60;99.90;;;;;;5051543;28;20491;-75
2022/06/15 12:50:56;;;;;;;2.70;2.50;;;22.70;99.90;;;;;;5048433;28;20489;-77
2022/06/15 12:53:59;;;;;;;2.23;2.03;;;22.80;99.90;;;;;;5048511;28;20511;-76
2022/06/15 12:57:01;;;;;;;3.40;2.90;;;22.70;99.90;;;;;;5044208;28;20441;-75
2022/06/15 13:00:00;;;;;;;2.80;2.50;;;22.80;99.90;;;;;;5047989;28;21154;-75
2022/06/15 13:02:59;;;;;;;2.90;2.67;;;22.90;99.90;;;;;;5042673;28;20557;-75
2022/06/15 13:05:47;;;;;;;3.10;2.77;;;23.00;99.90;;;;;;5046957;28;20478;-75
2022/06/15 13:08:38;;;;;;;3.37;2.90;;;23.10;99.90;;;;;;5051193;28;20514;-76
2022/06/15 13:11:29;;;;;;;2.73;2.53;;;23.20;99.90;;;;;;5046021;28;20454;-76
2022/06/15 13:14:25;;;;;;;3.40;2.70;;;23.20;99.90;;;;;;5049222;28;20623;-75
2022/06/15 13:17:16;;;;;;;4.17;2.40;;;23.10;99.90;;;;;;5042900;28;20926;-76
2022/06/15 13:20:07;;;;;;;2.60;2.40;;;23.00;99.90;;;;;;5050857;28;20482;-76
2022/06/15 13:22:55;;;;;;;3.23;2.67;;;23.00;99.90;;;;;;5049936;28;20531;-76
2022/06/15 13:25:53;;;;;;;3.57;2.13;;;23.20;99.90;;;;;;5046289;28;20538;-75
2022/06/15 13:29:04;;;;;;;3.63;2.33;;;23.40;99.90;;;;;;5057342;28;20602;-76
2022/06/15 13:31:57;;;;;;;2.60;2.40;;;23.60;99.90;;;;;;5052723;28;20457;-76
2022/06/15 13:34:50;;;;;;;3.30;2.50;;;23.70;99.90;;;;;;5041282;28;20633;-77
2022/06/15 13:37:57;;;;;;;2.30;2.07;;;23.80;99.90;;;;;;5049195;28;20478;-76
2022/06/15 13:41:08;;;;;;;2.97;2.63;;;24.00;99.90;;;;;;5046371;28;20448;-76
2022/06/15 13:44:21;;;;;;;3.53;2.70;;;24.00;99.90;;;;;;5043572;28;20574;-75
2022/06/15 13:47:11;;;;;;;4.40;2.70;;;24.10;99.90;;;;;;5049966;28;20497;-76
2022/06/15 13:50:07;;;;;;;2.83;2.53;;;24.00;99.90;;;;;;5048746;28;20481;-75
2022/06/15 13:52:57;;;;;;;2.50;2.30;;;24.00;99.90;;;;;;5052745;28;20482;-76
2022/06/15 13:55:57;;;;;;;2.67;2.47;;;23.90;99.90;;;;;;5046203;28;20481;-76
2022/06/15 13:59:04;;;;;;;2.33;2.13;;;23.80;99.90;;;;;;5047119;28;20446;-76
2022/06/15 14:02:20;;;;;;;2.80;2.60;;;23.90;99.90;;;;;;5049426;28;20540;-76
2022/06/15 14:05:35;;;;;;;2.63;2.43;;;24.10;99.90;;;;;;5035572;28;20866;-77
2022/06/15 14:08:45;;;;;;;3.57;2.17;;;24.20;99.90;;;;;;5034081;28;20455;-79
2022/06/15 14:11:49;;;;;;;2.53;2.30;;;24.20;99.90;;;;;;5047835;28;21008;-77
2022/06/15 14:15:08;;;;;;;2.40;2.20;;;24.10;99.90;;;;;;5037904;28;20482;-75
2022/06/15 14:18:26;;;;;;;2.73;2.53;;;24.00;99.90;;;;;;5035017;28;20592;-75
2022/06/15 14:21:18;;;;;;;3.40;2.63;;;23.90;99.90;;;;;;5040795;28;20453;-75
2022/06/15 14:24:29;;;;;;;2.53;2.33;;;24.00;99.90;;;;;;5049157;28;20473;-74
2022/06/15 14:27:27;;;;;;;2.83;2.53;;;24.20;99.90;;;;;;5054639;28;20541;-74
2022/06/15 14:30:22;;;;;;;2.60;2.40;;;24.40;99.90;;;;;;5054692;28;20504;-74
2022/06/15 14:33:22;;;;;;;3.70;2.33;;;24.60;99.90;;;;;;5056512;28;20565;-75
2022/06/15 14:36:14;;;;;;;2.73;2.40;;;24.80;99.90;;;;;;5055856;28;21014;-74
2022/06/15 14:39:17;;;;;;;2.40;2.20;;;24.90;99.90;;;;;;5051331;28;20465;-74
2022/06/15 14:42:15;;;;;;;2.63;2.43;;;25.10;99.90;;;;;;5052298;28;20497;-75
2022/06/15 14:45:16;;;;;;;2.87;2.17;;;25.20;99.90;;;;;;5053462;28;20470;-75
2022/06/15 14:48:09;;;;;;;3.03;2.33;;;25.30;99.90;;;;;;5053274;28;20446;-75
2022/06/15 14:51:12;;;;;;;3.17;2.40;;;25.30;99.90;;;;;;5050222;28;21052;-75
2022/06/15 14:54:06;;;;;;;2.60;2.40;;;25.40;99.90;;;;;;5049055;28;20485;-75
2022/06/15 14:56:58;;;;;;;2.90;2.70;;;25.50;99.90;;;;;;5050136;28;20458;-74
2022/06/15 14:59:50;;;;;;;2.80;2.60;;;25.60;99.90;;;;;;5052535;28;20929;-75
2022/06/15 15:02:42;;;;;;;2.10;2.00;;;25.70;99.90;;;;;;5055170;28;20478;-75
2022/06/15 15:05:33;;;;;;;2.70;2.37;;;25.80;99.90;;;;;;5046438;28;20576;-74
2022/06/15 15:08:31;;;;;;;2.57;2.37;;;25.80;99.90;;;;;;5053555;28;20461;-75
2022/06/15 15:11:33;;;;;;;2.33;2.17;;;25.90;99.90;;;;;;5048550;28;20481;-74
2022/06/15 15:14:32;;;;;;;5.40;2.57;;;25.90;99.90;;;;;;5054852;28;20530;-75
2022/06/15 15:17:20;;;;;;;2.60;2.40;;;26.00;99.90;;;;;;5051344;28;20458;-74
2022/06/15 15:20:28;;;;;;;2.63;2.37;;;26.00;99.90;;;;;;5054999;28;21870;-74
2022/06/15 15:23:37;;;;;;;2.83;2.30;;;26.00;99.90;;;;;;5050127;28;20465;-74
2022/06/15 15:26:39;;;;;;;2.87;2.17;;;26.10;99.90;;;;;;5047497;28;20980;-74
2022/06/15 15:35:59;;;;;;;2.63;2.43;;;26.10;99.90;;;;;;5045574;28;20827;-76
2022/06/15 15:39:12;;;;;;;2.63;2.30;;;26.10;99.90;;;;;;5053077;28;20457;-74
2022/06/15 15:42:01;;;;;;;3.40;2.10;;;26.10;99.90;;;;;;5052866;28;20595;-75
2022/06/15 15:44:52;;;;;;;3.00;2.70;;;26.20;99.90;;;;;;5044304;28;20520;-74
2022/06/15 15:47:44;;;;;;;2.83;2.40;;;26.20;99.90;;;;;;5050901;28;20470;-75
2022/06/15 15:50:35;;;;;;;2.67;2.47;;;26.20;99.90;;;;;;5052005;28;20594;-75
2022/06/15 15:53:27;;;;;;;3.47;2.80;;;26.30;99.90;;;;;;5050674;28;20851;-75
2022/06/15 15:56:18;;;;;;;3.77;2.47;;;26.30;99.90;;;;;;5048418;28;20461;-75
2022/06/15 15:59:07;;;;;;;2.60;2.40;;;26.30;99.90;;;;;;5052759;28;20548;-75
2022/06/15 16:01:56;;;;;;;4.60;2.40;;;26.30;99.90;;;;;;5048199;28;20458;-76
2022/06/15 16:04:53;;;;;;;2.60;2.40;;;26.30;99.90;;;;;;5049592;28;20518;-75
2022/06/15 16:07:42;;;;;;;4.83;2.57;;;26.20;99.90;;;;;;5052868;28;21037;-76
2022/06/15 16:10:36;;;;;;;2.57;2.37;;;26.10;99.90;;;;;;5047318;28;20501;-75